createdAt,value
2023-04-26T00:03:30.004Z,2.58
2023-04-26T00:08:30.942Z,2.15
2023-04-26T00:13:31.772Z,1.87
2023-04-26T00:18:32.546Z,2.35
2023-04-26T00:23:35.724Z,2.22
2023-04-26T00:28:36.505Z,3.10
2023-04-26T00:33:37.295Z,2.60
2023-04-26T00:38:38.092Z,2.60
2023-04-26T00:43:40.266Z,2.33
2023-04-26T00:48:41.650Z,2.62
2023-04-26T00:53:42.670Z,2.65
2023-04-26T00:58:44.486Z,2.30
2023-04-26T01:03:46.206Z,2.95
2023-04-26T01:08:47.588Z,2.70
2023-04-26T01:13:50.812Z,2.75
2023-04-26T01:18:52.514Z,2.75
2023-04-26T01:23:53.484Z,2.75
2023-04-26T01:28:54.472Z,2.33
2023-04-26T01:33:55.439Z,2.60
2023-04-26T01:38:56.183Z,2.30
2023-04-26T01:43:57.183Z,2.58
2023-04-26T01:48:58.916Z,2.47
2023-04-26T01:53:59.682Z,3.10
2023-04-26T01:59:00.551Z,2.97
2023-04-26T02:04:01.565Z,2.78
2023-04-26T02:09:03.082Z,2.50
2023-04-26T02:14:03.891Z,2.50
2023-04-26T02:19:04.840Z,2.47
2023-04-26T02:24:06.203Z,2.90
2023-04-26T02:29:06.996Z,2.28
2023-04-26T02:34:08.119Z,2.78
2023-04-26T02:39:09.115Z,2.70
2023-04-26T02:44:10.924Z,3.00
2023-04-26T02:49:11.742Z,3.10
2023-04-26T02:54:12.606Z,2.70
2023-04-26T02:59:13.846Z,3.15
2023-04-26T03:04:16.617Z,3.40
2023-04-26T03:09:18.444Z,3.58
2023-04-26T03:14:19.644Z,3.03
2023-04-26T03:19:20.669Z,3.58
2023-04-26T03:24:22.047Z,2.92
2023-04-26T03:29:23.081Z,3.80
2023-04-26T03:34:23.911Z,3.70
2023-04-26T03:39:25.217Z,3.60
2023-04-26T03:44:27.168Z,3.67
2023-04-26T03:49:28.840Z,4.57
2023-04-26T03:54:31.193Z,4.40
2023-04-26T03:59:32.295Z,4.80
2023-04-26T04:04:33.958Z,3.92
2023-04-26T04:09:35.230Z,3.45
2023-04-26T04:14:36.334Z,3.33
2023-04-26T04:19:37.487Z,3.42
2023-04-26T04:24:38.302Z,3.40
2023-04-26T04:29:40.123Z,3.40
2023-04-26T04:34:41.005Z,5.25
2023-04-26T04:39:41.898Z,4.00
2023-04-26T04:44:43.002Z,3.47
2023-04-26T04:49:44.557Z,3.70
2023-04-26T04:54:45.492Z,3.20
2023-04-26T04:59:46.972Z,3.47
2023-04-26T05:04:48.112Z,3.28
2023-04-26T05:09:49.120Z,3.67
2023-04-26T05:14:50.845Z,3.70
2023-04-26T05:19:51.835Z,3.72
2023-04-26T05:24:52.837Z,3.67
2023-04-26T05:29:53.771Z,5.37
2023-04-26T05:35:19.253Z,5.75
2023-04-26T05:40:20.010Z,5.45
2023-04-26T05:45:21.169Z,5.93
2023-04-26T05:50:21.989Z,6.20
2023-04-26T05:55:23.125Z,5.35
2023-04-26T06:00:24.969Z,5.43
2023-04-26T06:05:27.274Z,5.23
2023-04-26T06:10:28.257Z,4.37
2023-04-26T06:15:30.950Z,4.65
2023-04-26T06:20:32.605Z,4.60
2023-04-26T06:25:33.520Z,5.55
2023-04-26T06:30:34.827Z,4.55
2023-04-26T06:35:42.880Z,4.10
2023-04-26T06:40:44.828Z,4.82
2023-04-26T06:45:46.084Z,4.47
2023-04-26T06:50:46.856Z,4.70
2023-04-26T06:55:47.724Z,4.90
2023-04-26T07:00:48.493Z,4.95
2023-04-26T07:05:49.642Z,4.35
2023-04-26T07:10:50.911Z,3.85
2023-04-26T07:15:51.971Z,3.95
2023-04-26T07:20:52.777Z,3.80
2023-04-26T07:25:55.258Z,4.07
2023-04-26T07:30:58.028Z,3.70
2023-04-26T07:36:02.014Z,3.87
2023-04-26T07:41:03.782Z,3.62
2023-04-26T07:46:05.030Z,3.28
2023-04-26T07:51:12.762Z,3.40
2023-04-26T07:56:14.543Z,3.55
2023-04-26T08:01:16.810Z,3.72
2023-04-26T08:06:17.947Z,2.93
2023-04-26T08:11:18.808Z,3.33
2023-04-26T08:16:20.178Z,3.53
2023-04-26T08:21:20.990Z,3.30
2023-04-26T08:26:21.812Z,2.87
2023-04-26T08:31:22.678Z,3.55
2023-04-26T08:36:23.536Z,3.30
2023-04-26T08:41:25.480Z,3.08
2023-04-26T08:46:28.516Z,3.15
2023-04-26T08:51:32.473Z,3.15
2023-04-26T08:56:34.761Z,2.97
2023-04-26T09:01:39.094Z,3.25
2023-04-26T09:06:40.768Z,2.83
2023-04-26T09:11:59.257Z,3.20
2023-04-26T09:17:00.349Z,2.78
2023-04-26T09:22:01.165Z,2.97
2023-04-26T09:27:04.878Z,2.55
2023-04-26T09:32:07.260Z,3.10
2023-04-26T09:37:11.561Z,2.60
2023-04-26T09:42:17.169Z,2.90
2023-04-26T09:47:21.683Z,2.87
2023-04-26T09:52:22.492Z,3.30
2023-04-26T09:57:23.312Z,3.45
2023-04-26T10:02:26.143Z,3.35
2023-04-26T10:07:29.651Z,3.12
2023-04-26T10:17:31.912Z,2.85
2023-04-26T10:22:39.114Z,3.15
2023-04-26T10:27:57.985Z,2.75
2023-04-26T10:33:20.711Z,3.05
2023-04-26T10:38:21.576Z,3.35
2023-04-26T10:43:28.709Z,3.15
2023-04-26T10:48:31.034Z,2.45
2023-04-26T10:53:57.030Z,3.28
2023-04-26T11:04:15.841Z,2.45
2023-04-26T11:09:34.277Z,2.58
2023-04-26T11:14:35.091Z,2.95
2023-04-26T11:19:36.232Z,2.47
2023-04-26T11:24:38.169Z,2.70
2023-04-26T11:29:39.109Z,2.33
2023-04-26T11:34:40.951Z,2.45
2023-04-26T11:39:48.195Z,2.72
2023-04-26T11:44:51.331Z,3.47
2023-04-26T11:49:52.612Z,2.80
2023-04-26T11:55:06.680Z,3.10
2023-04-26T12:00:14.290Z,2.67
2023-04-26T12:05:22.858Z,2.50
2023-04-26T12:10:33.347Z,2.92
2023-04-26T12:15:34.171Z,2.10
2023-04-26T12:20:37.094Z,1.90
2023-04-26T12:25:39.663Z,2.25
2023-04-26T12:30:40.401Z,1.87
2023-04-26T12:35:42.025Z,2.00
2023-04-26T12:40:44.491Z,2.75
2023-04-26T12:45:45.589Z,2.27
2023-04-26T12:50:46.540Z,1.98
2023-04-26T12:55:47.768Z,2.12
2023-04-26T13:00:50.459Z,2.78
2023-04-26T13:05:51.638Z,2.40
2023-04-26T13:10:52.749Z,2.37
2023-04-26T13:15:53.621Z,2.87
2023-04-26T13:20:54.569Z,2.85
2023-04-26T13:25:55.315Z,2.53
2023-04-26T13:30:56.247Z,2.47
2023-04-26T13:35:57.131Z,2.17
2023-04-26T13:40:57.945Z,2.75
2023-04-26T13:45:59.160Z,2.10
2023-04-26T13:51:00.069Z,2.95
2023-04-26T13:56:01.548Z,2.45
2023-04-26T14:01:02.875Z,3.33
2023-04-26T14:06:04.127Z,2.15
2023-04-26T14:11:05.679Z,2.78
2023-04-26T14:16:07.810Z,2.17
2023-04-26T14:21:08.665Z,2.23
2023-04-26T14:26:09.508Z,2.85
2023-04-26T14:31:10.264Z,2.33
2023-04-26T14:36:11.990Z,2.25
2023-04-26T14:41:16.917Z,2.50
2023-04-26T14:46:17.804Z,2.80
2023-04-26T14:51:18.899Z,2.45
2023-04-26T14:56:19.674Z,2.55
2023-04-26T15:01:20.477Z,2.55
2023-04-26T15:06:21.245Z,2.30
2023-04-26T15:11:22.370Z,2.75
2023-04-26T15:16:23.256Z,2.10
2023-04-26T15:21:24.366Z,2.28
2023-04-26T15:26:25.333Z,2.65
2023-04-26T15:31:26.191Z,2.42
2023-04-26T15:36:27.504Z,2.87
2023-04-26T15:41:28.288Z,2.47
2023-04-26T15:46:29.101Z,1.92
2023-04-26T15:51:30.114Z,2.20
2023-04-26T15:56:31.103Z,1.95
2023-04-26T16:01:31.914Z,2.37
2023-04-26T16:06:33.638Z,1.85
2023-04-26T16:11:35.506Z,1.80
2023-04-26T16:16:38.176Z,2.03
2023-04-26T16:21:40.042Z,2.35
2023-04-26T16:26:40.835Z,2.15
2023-04-26T16:31:41.949Z,1.52
2023-04-26T16:36:42.698Z,1.80
2023-04-26T16:41:43.522Z,2.03
2023-04-26T16:46:44.350Z,2.05
2023-04-26T16:51:50.629Z,1.98
2023-04-26T16:56:51.653Z,1.77
2023-04-26T17:01:53.982Z,1.70
2023-04-26T17:06:54.742Z,2.17
2023-04-26T17:11:55.847Z,1.58
2023-04-26T17:16:56.583Z,1.92
2023-04-26T17:21:57.564Z,1.65
2023-04-26T17:26:58.393Z,1.70
2023-04-26T17:31:59.241Z,2.08
2023-04-26T17:37:00.053Z,1.90
2023-04-26T17:42:02.258Z,2.08
2023-04-26T17:47:03.310Z,1.52
2023-04-26T17:52:04.180Z,2.08
2023-04-26T17:57:06.926Z,1.90
2023-04-26T18:02:07.720Z,1.95
2023-04-26T18:07:08.601Z,1.90
2023-04-26T18:12:09.379Z,1.50
2023-04-26T18:17:14.447Z,1.75
2023-04-26T18:22:15.487Z,3.80
2023-04-26T18:27:16.468Z,2.55
2023-04-26T18:32:17.245Z,2.30
2023-04-26T18:37:18.468Z,2.30
2023-04-26T18:42:19.285Z,1.92
2023-04-26T18:47:20.380Z,1.20
2023-04-26T18:52:21.616Z,2.20
2023-04-26T18:57:25.371Z,2.50
2023-04-26T19:02:26.193Z,2.00
2023-04-26T19:07:27.624Z,2.30
2023-04-26T19:12:28.767Z,2.20
2023-04-26T19:17:32.465Z,2.65
2023-04-26T19:22:33.339Z,2.28
2023-04-26T19:27:34.181Z,2.80
2023-04-26T19:32:35.664Z,1.60
2023-04-26T19:37:36.507Z,11.90
2023-04-26T19:42:37.244Z,20.42
2023-04-26T19:47:40.919Z,12.02
2023-04-26T19:52:41.861Z,4.57
2023-04-26T19:57:42.917Z,1.92
2023-04-26T20:02:43.887Z,2.25
2023-04-26T20:07:44.830Z,2.22
2023-04-26T20:12:45.625Z,2.25
2023-04-26T20:17:47.018Z,2.72
2023-04-26T20:22:47.971Z,1.67
2023-04-26T20:27:49.752Z,2.30
2023-04-26T20:32:50.555Z,1.90
2023-04-26T20:37:51.397Z,2.40
2023-04-26T20:42:52.148Z,2.42
2023-04-26T20:47:53.073Z,2.08
2023-04-26T20:52:54.105Z,2.53
2023-04-26T20:57:55.096Z,3.80
2023-04-26T21:02:56.441Z,5.20
2023-04-26T21:07:57.269Z,3.30
2023-04-26T21:12:58.022Z,2.42
2023-04-26T21:17:58.950Z,3.25
2023-04-26T21:22:59.852Z,3.00
2023-04-26T21:28:00.899Z,2.90
2023-04-26T21:33:01.800Z,2.25
2023-04-26T21:38:02.923Z,2.22
2023-04-26T21:43:05.411Z,2.67
2023-04-26T21:48:06.495Z,2.50
2023-04-26T21:53:07.407Z,1.90
2023-04-26T21:58:08.243Z,1.90
2023-04-26T22:03:09.216Z,2.15
2023-04-26T22:08:10.578Z,2.67
2023-04-26T22:13:11.348Z,2.22
2023-04-26T22:18:12.426Z,3.20
2023-04-26T22:23:13.419Z,2.05
2023-04-26T22:28:14.808Z,2.53
2023-04-26T22:33:15.893Z,2.97
2023-04-26T22:38:16.739Z,2.80
2023-04-26T22:43:17.625Z,2.60
2023-04-26T22:48:18.397Z,3.92
2023-04-26T22:53:19.321Z,2.72
2023-04-26T22:58:20.446Z,3.00
2023-04-26T23:03:21.381Z,2.83
2023-04-26T23:08:22.510Z,2.78
2023-04-26T23:13:26.397Z,2.72
2023-04-26T23:18:27.145Z,2.20
2023-04-26T23:23:28.574Z,2.40
2023-04-26T23:28:29.309Z,2.22
2023-04-26T23:33:30.131Z,2.10
2023-04-26T23:38:30.886Z,2.30
2023-04-26T23:43:31.733Z,2.40
2023-04-26T23:48:32.495Z,2.20
2023-04-26T23:53:33.463Z,2.65
2023-04-26T23:58:34.223Z,2.40
